Meeks Bay, California
Current Conditions -  °F | °C
As of 4:53 PM on Sunday 23 Nov 2014 (Local Time) from KTVL Reporting Station
Overcast Overcast  
Wind Chill: 40°   Ceiling: 8000
Heat Index: 40°   Visibility: 10mi
Dew Point: 27°   Wind: 0mph
Humidity: 60%   Direction: NA
Pressure: 30.29"   Gusts: NA
Location:  39.0516°N, 120.165°W
Report Text: KTVL 240053Z AUTO 00000KT 10SM OVC080 04/M03 A3029 RMK AO2 SLP261 T00441028
Loading
Personal Weather Stations






























Interactive Weather Map New forecast layout! Learn more

10-Day Weather Forecast

Advertisements
Track Severe Weather on mobile